Time;durP1;ratioP1;P1;durP2;ratioP2;P2;SDS_P1;SDS_P2;PMS_P1;PMS_P2;Temp;Humidity;BMP_temperature;BMP_pressure;BME280_temperature;BME280_humidity;BME280_pressure;Samples;Min_cycle;Max_cycle;Signal;HPM_P1;HPM_P2
2021/08/15 00:00:49;;;;;;;7.85;3.05;;;17.40;86.20;;;;;;5064392;28;20354;-76
2021/08/15 00:03:17;;;;;;;7.30;3.20;;;17.40;86.10;;;;;;5071586;28;20059;-76
2021/08/15 00:05:44;;;;;;;9.52;3.80;;;17.40;86.30;;;;;;5067214;28;20048;-77
2021/08/15 00:08:13;;;;;;;7.43;3.45;;;17.40;86.30;;;;;;5073477;28;20245;-76
2021/08/15 00:10:46;;;;;;;9.95;3.60;;;17.30;86.50;;;;;;5070006;28;20109;-77
2021/08/15 00:13:20;;;;;;;6.47;3.22;;;17.30;86.40;;;;;;5070817;28;20056;-76
2021/08/15 00:15:48;;;;;;;5.40;2.80;;;17.30;86.40;;;;;;5069343;28;20115;-77
2021/08/15 00:18:15;;;;;;;11.70;4.63;;;17.20;86.60;;;;;;5071986;28;20056;-76
2021/08/15 00:20:43;;;;;;;9.05;4.32;;;17.20;86.60;;;;;;5076097;28;20056;-76
2021/08/15 00:23:12;;;;;;;10.73;5.25;;;17.10;87.00;;;;;;5084162;28;20455;-76
2021/08/15 00:25:39;;;;;;;9.48;4.75;;;17.00;87.10;;;;;;5070230;28;20111;-76
2021/08/15 00:28:07;;;;;;;8.38;3.97;;;16.90;87.20;;;;;;5079420;28;20045;-76
2021/08/15 00:30:34;;;;;;;7.00;3.42;;;16.80;87.50;;;;;;5081767;28;20032;-75
2021/08/15 00:33:01;;;;;;;9.07;3.03;;;16.70;87.60;;;;;;5073172;28;20331;-75
2021/08/15 00:35:30;;;;;;;6.28;2.70;;;16.70;87.80;;;;;;5072950;28;20114;-77
2021/08/15 00:37:57;;;;;;;5.78;2.75;;;16.60;87.90;;;;;;5077726;28;20059;-77
2021/08/15 00:40:26;;;;;;;7.75;3.00;;;16.60;88.00;;;;;;5075293;28;20098;-77
2021/08/15 00:42:54;;;;;;;5.88;2.78;;;16.60;87.90;;;;;;5068935;28;21669;-75
2021/08/15 00:45:21;;;;;;;6.93;3.50;;;16.60;87.90;;;;;;5076313;28;20413;-76
2021/08/15 00:47:48;;;;;;;8.43;3.13;;;16.70;87.80;;;;;;5085685;28;20046;-76
2021/08/15 00:50:16;;;;;;;7.18;3.35;;;16.70;87.70;;;;;;5082637;28;20224;-75
2021/08/15 00:52:43;;;;;;;8.57;3.38;;;16.70;87.70;;;;;;5088026;28;20058;-76
2021/08/15 00:55:12;;;;;;;7.10;2.92;;;16.70;87.60;;;;;;5080653;28;20081;-76
2021/08/15 00:57:43;;;;;;;7.78;2.58;;;16.70;87.40;;;;;;5073448;28;20045;-74
2021/08/15 01:00:12;;;;;;;7.13;3.17;;;16.60;87.30;;;;;;5067167;28;20348;-76
2021/08/15 01:02:40;;;;;;;7.93;3.50;;;16.50;87.60;;;;;;5080920;28;20056;-75
2021/08/15 01:05:08;;;;;;;8.73;4.85;;;16.50;87.80;;;;;;5069251;28;20270;-76
2021/08/15 01:07:37;;;;;;;13.98;7.47;;;16.50;87.50;;;;;;5074240;28;20078;-76
2021/08/15 01:10:05;;;;;;;8.27;4.63;;;16.50;87.50;;;;;;5082438;28;20147;-76
2021/08/15 01:12:33;;;;;;;6.60;3.75;;;16.40;87.50;;;;;;5071571;28;20048;-76
2021/08/15 01:15:18;;;;;;;12.73;3.34;;;16.50;87.50;;;;;;2915936;28;10219545;-77
2021/08/15 01:17:46;;;;;;;6.13;2.58;;;16.50;87.50;;;;;;3304016;28;10001400;-76
2021/08/15 01:20:14;;;;;;;5.47;2.90;;;16.50;87.30;;;;;;5026752;28;20053;-76
2021/08/15 01:22:43;;;;;;;8.90;3.42;;;16.40;87.30;;;;;;5026700;28;20061;-76
2021/08/15 01:25:12;;;;;;;5.63;2.95;;;16.40;87.60;;;;;;5033469;28;20104;-76
2021/08/15 01:27:42;;;;;;;8.82;3.58;;;16.30;87.70;;;;;;5032336;28;20068;-76
2021/08/15 01:30:13;;;;;;;7.40;3.08;;;16.30;88.00;;;;;;5033058;28;20049;-76
2021/08/15 01:32:40;;;;;;;7.95;3.30;;;16.30;88.20;;;;;;5031518;28;20099;-76
2021/08/15 01:35:09;;;;;;;6.07;2.75;;;16.30;88.20;;;;;;5034338;28;20096;-75
2021/08/15 01:37:36;;;;;;;7.82;3.30;;;16.20;88.30;;;;;;5039878;28;20061;-76
2021/08/15 01:40:05;;;;;;;7.72;3.00;;;16.30;88.40;;;;;;5025231;28;20125;-76
2021/08/15 01:42:39;;;;;;;8.13;2.42;;;16.30;88.20;;;;;;5030747;28;20053;-75
2021/08/15 01:45:13;;;;;;;6.13;2.95;;;16.20;87.90;;;;;;5038547;28;20288;-76
2021/08/15 01:47:40;;;;;;;8.82;2.63;;;16.10;87.50;;;;;;5030730;28;20059;-74
2021/08/15 01:50:08;;;;;;;6.70;2.63;;;16.10;87.50;;;;;;5036280;28;20060;-77
2021/08/15 01:52:36;;;;;;;6.63;2.97;;;16.00;87.80;;;;;;5045061;28;20112;-78
2021/08/15 01:55:04;;;;;;;8.30;3.78;;;16.10;88.00;;;;;;5046025;28;20045;-77
2021/08/15 01:57:31;;;;;;;7.28;3.13;;;16.10;87.80;;;;;;5043618;28;20048;-76
2021/08/15 01:59:58;;;;;;;6.03;2.38;;;16.10;87.90;;;;;;5046716;28;20120;-76
2021/08/15 02:02:27;;;;;;;6.07;2.80;;;16.00;87.90;;;;;;5043593;28;20387;-76
2021/08/15 02:04:54;;;;;;;6.90;3.33;;;16.00;88.00;;;;;;5033221;28;20049;-76
2021/08/15 02:07:28;;;;;;;8.82;3.22;;;16.10;88.10;;;;;;5065913;28;20040;-75
2021/08/15 02:09:55;;;;;;;5.30;2.78;;;16.10;88.00;;;;;;5046930;28;20124;-76
2021/08/15 02:12:22;;;;;;;7.38;2.83;;;16.10;88.10;;;;;;5046322;28;20088;-76
2021/08/15 02:14:50;;;;;;;6.32;3.00;;;16.10;88.00;;;;;;5039819;28;20121;-75
2021/08/15 02:17:17;;;;;;;6.55;3.05;;;16.00;88.20;;;;;;5045250;28;20045;-74
2021/08/15 02:19:45;;;;;;;8.02;3.22;;;16.00;88.20;;;;;;5049949;28;20442;-77
2021/08/15 02:22:12;;;;;;;6.75;2.85;;;15.90;88.20;;;;;;5041210;28;20052;-76
2021/08/15 02:24:39;;;;;;;8.02;3.65;;;15.90;88.00;;;;;;5038138;28;20108;-76
2021/08/15 02:27:06;;;;;;;7.60;2.85;;;15.90;88.10;;;;;;5028734;28;20056;-77
2021/08/15 02:29:34;;;;;;;6.32;2.42;;;15.90;88.10;;;;;;5049008;28;20045;-76
2021/08/15 02:32:01;;;;;;;8.45;2.88;;;15.80;88.20;;;;;;5062394;28;20083;-77
2021/08/15 02:34:31;;;;;;;5.55;2.92;;;15.80;88.20;;;;;;5046308;28;20356;-79
2021/08/15 02:37:00;;;;;;;6.15;2.85;;;15.80;88.40;;;;;;5026527;28;20049;-77
2021/08/15 02:39:30;;;;;;;8.77;2.92;;;15.80;88.40;;;;;;5034985;28;20068;-78
2021/08/15 02:41:57;;;;;;;6.70;3.13;;;15.80;88.60;;;;;;5025649;28;20111;-78
2021/08/15 02:44:24;;;;;;;7.38;3.55;;;15.80;88.60;;;;;;5046711;28;20593;-77
2021/08/15 02:46:51;;;;;;;9.18;3.08;;;15.90;88.00;;;;;;5041732;28;20107;-79
2021/08/15 02:49:19;;;;;;;7.28;2.53;;;15.90;87.50;;;;;;5029321;28;20367;-76
2021/08/15 02:51:47;;;;;;;8.45;3.10;;;15.80;87.50;;;;;;5054239;28;20078;-77
2021/08/15 02:54:15;;;;;;;9.57;2.92;;;15.80;87.50;;;;;;5059613;28;20267;-76
2021/08/15 02:56:43;;;;;;;7.55;3.33;;;15.90;87.40;;;;;;5037006;28;20076;-78
2021/08/15 02:59:11;;;;;;;6.20;2.80;;;16.00;87.40;;;;;;5056327;28;20060;-80
2021/08/15 03:01:41;;;;;;;7.68;3.00;;;16.10;87.40;;;;;;5052566;28;20154;-76
2021/08/15 03:04:08;;;;;;;5.45;2.78;;;16.20;87.30;;;;;;5041090;28;20063;-78
2021/08/15 03:06:36;;;;;;;5.85;2.92;;;16.20;87.00;;;;;;5042498;28;20116;-76
2021/08/15 03:09:07;;;;;;;6.47;3.03;;;16.20;86.80;;;;;;5042832;28;20098;-78
2021/08/15 03:11:35;;;;;;;8.38;3.55;;;16.20;87.00;;;;;;5040462;28;20092;-77
2021/08/15 03:14:09;;;;;;;9.57;3.72;;;16.20;87.40;;;;;;5045114;28;20053;-78
2021/08/15 03:16:43;;;;;;;9.25;3.58;;;16.20;87.80;;;;;;5058085;28;20348;-77
2021/08/15 03:19:10;;;;;;;9.65;4.15;;;16.30;87.90;;;;;;5049392;28;20042;-76
2021/08/15 03:21:39;;;;;;;9.43;4.60;;;16.30;87.80;;;;;;5044945;28;20216;-78
2021/08/15 03:24:07;;;;;;;11.82;4.05;;;16.40;87.80;;;;;;5043440;28;20224;-77
2021/08/15 03:26:38;;;;;;;10.68;4.78;;;16.50;87.30;;;;;;5051715;28;20046;-78
2021/08/15 03:29:05;;;;;;;7.10;3.25;;;16.50;86.50;;;;;;5052964;28;20049;-78
2021/08/15 03:31:33;;;;;;;10.38;3.70;;;16.40;86.50;;;;;;5054533;28;20120;-78
2021/08/15 03:34:01;;;;;;;11.18;3.88;;;16.30;86.80;;;;;;5032145;28;20049;-78
2021/08/15 03:36:28;;;;;;;8.35;3.65;;;16.20;87.20;;;;;;5042033;28;20039;-78
2021/08/15 03:38:55;;;;;;;8.90;3.88;;;16.10;87.90;;;;;;5056453;28;20045;-78
2021/08/15 03:41:23;;;;;;;7.93;3.88;;;16.00;88.00;;;;;;5045929;28;20124;-80
2021/08/15 03:43:51;;;;;;;6.88;3.67;;;15.80;88.70;;;;;;5047535;28;20339;-76
2021/08/15 03:46:19;;;;;;;8.85;4.05;;;15.80;88.70;;;;;;5053872;28;20040;-79
2021/08/15 03:48:51;;;;;;;8.93;3.38;;;15.80;88.80;;;;;;5037707;28;20037;-78
2021/08/15 03:51:18;;;;;;;9.32;2.67;;;15.70;87.70;;;;;;5040292;28;20244;-79
2021/08/15 03:53:48;;;;;;;9.13;2.85;;;15.60;87.00;;;;;;5036467;28;20057;-77
2021/08/15 03:56:16;;;;;;;6.15;2.55;;;15.60;86.90;;;;;;5040765;28;20076;-78
2021/08/15 03:58:43;;;;;;;7.20;2.70;;;15.50;86.90;;;;;;5040205;28;20047;-76
2021/08/15 04:01:11;;;;;;;6.70;2.70;;;15.50;87.00;;;;;;5042400;28;20045;-77
2021/08/15 04:03:39;;;;;;;5.63;2.80;;;15.40;87.20;;;;;;5041842;28;20040;-78
2021/08/15 04:06:08;;;;;;;8.50;3.33;;;15.40;87.20;;;;;;5048644;28;20076;-78
2021/08/15 04:08:35;;;;;;;11.67;3.57;;;15.50;87.60;;;;;;5069749;28;20871;-78
2021/08/15 04:11:03;;;;;;;6.80;3.50;;;15.40;87.80;;;;;;5040338;28;20473;-77
2021/08/15 04:13:39;;;;;;;6.68;3.20;;;15.30;87.90;;;;;;5037648;28;20124;-76
2021/08/15 04:16:06;;;;;;;8.50;3.67;;;15.30;88.30;;;;;;5028710;28;20147;-77
2021/08/15 04:18:39;;;;;;;9.43;3.55;;;15.30;88.40;;;;;;5041240;28;20052;-78
2021/08/15 04:21:06;;;;;;;10.40;3.47;;;15.30;88.60;;;;;;5077553;28;20144;-79
2021/08/15 04:23:34;;;;;;;9.32;3.55;;;15.20;88.50;;;;;;5042457;28;20124;-80
2021/08/15 04:26:01;;;;;;;11.07;3.38;;;15.20;88.70;;;;;;5046567;28;20337;-77
2021/08/15 04:28:33;;;;;;;9.27;3.70;;;15.30;88.50;;;;;;5041722;28;20069;-78
2021/08/15 04:31:00;;;;;;;8.38;3.50;;;15.30;88.40;;;;;;5063498;28;20049;-77
2021/08/15 04:33:30;;;;;;;10.07;3.05;;;15.30;88.30;;;;;;5040652;28;20359;-79
2021/08/15 04:35:59;;;;;;;6.13;2.72;;;15.40;88.00;;;;;;5038425;28;20113;-78
2021/08/15 04:38:26;;;;;;;9.13;4.10;;;15.30;87.60;;;;;;5061393;28;20075;-77
2021/08/15 04:40:53;;;;;;;10.75;3.47;;;15.30;87.60;;;;;;5049644;28;20044;-77
2021/08/15 04:43:21;;;;;;;10.02;3.35;;;15.40;87.60;;;;;;5054809;28;20178;-77
2021/08/15 04:45:49;;;;;;;8.48;3.95;;;15.40;87.70;;;;;;5041796;28;20072;-77
2021/08/15 04:48:17;;;;;;;9.00;4.10;;;15.50;87.60;;;;;;5055853;28;20406;-79
2021/08/15 04:50:44;;;;;;;8.60;4.05;;;15.50;87.50;;;;;;5047585;28;20048;-77
2021/08/15 04:53:13;;;;;;;6.90;3.47;;;15.50;87.30;;;;;;5052144;28;20242;-78
2021/08/15 04:55:40;;;;;;;8.30;2.58;;;15.60;87.20;;;;;;5037882;28;20107;-78
2021/08/15 04:58:07;;;;;;;7.55;3.33;;;15.60;87.10;;;;;;5051805;28;20340;-76
2021/08/15 05:00:35;;;;;;;10.23;3.60;;;15.60;86.90;;;;;;5034062;28;20403;-79
2021/08/15 05:03:03;;;;;;;8.13;3.15;;;15.60;86.60;;;;;;5044077;28;20037;-80
2021/08/15 05:05:34;;;;;;;9.27;3.13;;;15.60;87.00;;;;;;5042064;28;20045;-78
2021/08/15 05:08:01;;;;;;;6.35;2.90;;;15.60;87.10;;;;;;5042809;28;20075;-79
2021/08/15 05:10:30;;;;;;;7.90;3.47;;;15.70;87.00;;;;;;5042338;28;20072;-79
2021/08/15 05:12:57;;;;;;;10.32;3.63;;;15.70;87.00;;;;;;5040314;28;20072;-76
2021/08/15 05:15:24;;;;;;;7.13;3.33;;;15.70;86.80;;;;;;5039399;28;20057;-76
2021/08/15 05:17:51;;;;;;;7.78;3.50;;;15.80;86.80;;;;;;5043453;28;20079;-77
2021/08/15 05:20:19;;;;;;;6.95;3.55;;;15.70;86.50;;;;;;5051010;28;20281;-76
2021/08/15 05:22:46;;;;;;;9.73;3.13;;;15.70;86.60;;;;;;5040111;28;20073;-78
2021/08/15 05:25:13;;;;;;;9.27;3.72;;;15.60;86.90;;;;;;5040388;28;20041;-78
2021/08/15 05:27:42;;;;;;;6.55;2.83;;;15.60;87.10;;;;;;5044888;28;20052;-80
2021/08/15 05:30:10;;;;;;;6.13;3.10;;;15.60;86.90;;;;;;5067004;28;20315;-80
2021/08/15 05:32:37;;;;;;;7.75;2.90;;;15.70;86.60;;;;;;5047093;28;20076;-79
2021/08/15 05:35:05;;;;;;;7.95;3.58;;;15.60;86.60;;;;;;5058435;28;20049;-78
2021/08/15 05:37:32;;;;;;;7.18;2.63;;;15.60;86.60;;;;;;5045661;28;20042;-80
2021/08/15 05:39:59;;;;;;;6.63;3.10;;;15.70;86.40;;;;;;5063627;28;20331;-79
2021/08/15 05:42:27;;;;;;;6.20;2.47;;;15.60;86.60;;;;;;5051548;28;20041;-79
2021/08/15 05:44:55;;;;;;;13.00;6.75;;;15.60;86.70;;;;;;5048392;28;20551;-77
2021/08/15 05:47:22;;;;;;;7.90;3.67;;;15.60;86.70;;;;;;5057108;28;20037;-78
2021/08/15 05:49:49;;;;;;;8.68;3.50;;;15.60;86.50;;;;;;5044442;28;20081;-77
2021/08/15 05:52:17;;;;;;;6.88;2.92;;;15.70;86.50;;;;;;5043091;28;20191;-78
2021/08/15 05:54:44;;;;;;;6.93;3.03;;;15.70;86.50;;;;;;5046739;28;20103;-77
2021/08/15 05:57:11;;;;;;;6.85;2.85;;;15.70;86.40;;;;;;5050785;28;20041;-79
2021/08/15 05:59:39;;;;;;;7.75;3.28;;;15.70;86.30;;;;;;5034480;28;20053;-78
2021/08/15 06:02:08;;;;;;;6.85;3.38;;;15.80;86.10;;;;;;5036252;28;20069;-79
2021/08/15 06:04:35;;;;;;;9.73;3.03;;;15.90;86.10;;;;;;5052258;28;20336;-77
2021/08/15 06:07:02;;;;;;;6.97;3.38;;;15.90;86.00;;;;;;5047099;28;20044;-77
2021/08/15 06:09:29;;;;;;;7.63;2.85;;;16.00;86.00;;;;;;5039008;28;20147;-77
2021/08/15 06:12:02;;;;;;;6.53;3.25;;;16.10;85.70;;;;;;5042645;28;20116;-78
2021/08/15 06:14:30;;;;;;;7.45;3.35;;;16.10;85.40;;;;;;5053290;28;20067;-77
2021/08/15 06:16:57;;;;;;;6.03;2.83;;;16.10;85.50;;;;;;5057324;28;20072;-77
2021/08/15 06:19:26;;;;;;;9.38;3.30;;;16.20;85.40;;;;;;5044238;28;20361;-79
2021/08/15 06:21:53;;;;;;;7.55;3.30;;;16.30;85.30;;;;;;5048682;28;20064;-77
2021/08/15 06:24:20;;;;;;;7.40;3.13;;;16.30;85.30;;;;;;5043144;28;20068;-79
2021/08/15 06:26:47;;;;;;;8.48;3.15;;;16.40;85.20;;;;;;5046106;28;20421;-78
2021/08/15 06:29:14;;;;;;;8.45;3.60;;;16.60;85.00;;;;;;5032512;28;20436;-77
2021/08/15 06:31:42;;;;;;;7.75;2.78;;;16.60;84.60;;;;;;5047843;28;20056;-79
2021/08/15 06:34:09;;;;;;;6.78;3.50;;;16.60;84.60;;;;;;5058884;28;20045;-80
2021/08/15 06:36:38;;;;;;;9.35;3.03;;;16.70;84.40;;;;;;5045677;28;20041;-78
2021/08/15 06:39:06;;;;;;;6.57;3.42;;;16.80;84.20;;;;;;5049859;28;20122;-77
2021/08/15 06:41:34;;;;;;;10.52;2.67;;;16.80;83.90;;;;;;5047453;28;20078;-78
2021/08/15 06:44:01;;;;;;;6.50;3.05;;;16.90;83.70;;;;;;5043595;28;20108;-78
2021/08/15 06:46:30;;;;;;;6.65;3.22;;;17.00;83.50;;;;;;5046094;28;20124;-78
2021/08/15 06:48:57;;;;;;;8.27;3.20;;;17.10;83.50;;;;;;5050271;28;20065;-79
2021/08/15 06:51:24;;;;;;;6.75;3.45;;;17.20;83.30;;;;;;5037398;28;20341;-79
2021/08/15 06:53:53;;;;;;;6.20;2.92;;;17.30;83.00;;;;;;5055620;28;20561;-78
2021/08/15 06:56:20;;;;;;;6.55;2.83;;;17.40;82.60;;;;;;5058151;28;20045;-80
2021/08/15 06:58:49;;;;;;;7.97;3.20;;;17.60;82.50;;;;;;5041210;28;20061;-79
2021/08/15 07:01:16;;;;;;;7.38;2.78;;;17.60;81.90;;;;;;5039007;28;20052;-78
2021/08/15 07:03:44;;;;;;;10.45;3.13;;;17.70;81.70;;;;;;5040470;28;20606;-78
2021/08/15 07:06:11;;;;;;;7.50;2.53;;;17.80;81.50;;;;;;5045592;28;20084;-78
2021/08/15 07:08:39;;;;;;;6.93;2.67;;;17.90;81.30;;;;;;5045483;28;20263;-79
2021/08/15 07:11:08;;;;;;;7.18;2.80;;;18.00;80.40;;;;;;5049149;28;20076;-76
2021/08/15 07:13:35;;;;;;;8.73;2.90;;;18.10;80.90;;;;;;5046402;28;20045;-79
2021/08/15 07:16:04;;;;;;;8.50;2.95;;;18.20;80.60;;;;;;5039730;28;20070;-79
2021/08/15 07:18:31;;;;;;;6.10;2.63;;;18.30;80.10;;;;;;5047726;28;20123;-79
2021/08/15 07:21:00;;;;;;;8.65;3.05;;;18.30;80.20;;;;;;5079588;28;20399;-79
2021/08/15 07:23:28;;;;;;;7.15;3.13;;;18.40;80.00;;;;;;5047046;28;20033;-80
2021/08/15 07:25:55;;;;;;;8.05;3.58;;;18.50;79.90;;;;;;5033940;28;20083;-79
2021/08/15 07:28:24;;;;;;;5.38;2.85;;;18.50;79.70;;;;;;5050496;28;20265;-77
2021/08/15 07:30:51;;;;;;;7.97;3.33;;;18.70;79.40;;;;;;5049918;28;20049;-80
2021/08/15 07:33:20;;;;;;;8.38;3.03;;;18.80;78.90;;;;;;5058084;28;20044;-77
2021/08/15 07:35:48;;;;;;;6.17;2.83;;;19.00;78.80;;;;;;5051593;28;20041;-77
2021/08/15 07:38:15;;;;;;;6.85;2.83;;;19.10;78.90;;;;;;5043586;28;20830;-77
2021/08/15 07:40:42;;;;;;;10.45;3.08;;;19.10;78.50;;;;;;5039467;28;20041;-79
2021/08/15 07:43:10;;;;;;;6.18;3.20;;;19.20;78.50;;;;;;5045596;28;20283;-79
2021/08/15 07:45:38;;;;;;;6.65;3.00;;;19.20;77.80;;;;;;5062001;28;20229;-77
2021/08/15 07:48:06;;;;;;;8.32;3.50;;;19.40;78.00;;;;;;5048583;28;20113;-77
2021/08/15 07:50:38;;;;;;;7.75;2.72;;;19.50;77.50;;;;;;5055029;28;20233;-76
2021/08/15 07:53:16;;;;;;;6.22;3.03;;;19.70;76.60;;;;;;5062411;28;20050;-76
2021/08/15 07:55:44;;;;;;;5.82;2.85;;;19.90;76.10;;;;;;5046229;28;20069;-79
2021/08/15 07:58:11;;;;;;;6.60;2.83;;;20.10;76.10;;;;;;5050602;28;20067;-77
2021/08/15 08:00:40;;;;;;;5.50;2.35;;;20.20;75.40;;;;;;5043995;28;20037;-79
2021/08/15 08:03:07;;;;;;;12.65;2.95;;;20.30;74.80;;;;;;5037843;28;20088;-82
2021/08/15 08:05:34;;;;;;;7.68;2.88;;;20.60;74.80;;;;;;5087645;28;20124;-82
2021/08/15 08:08:01;;;;;;;7.88;3.10;;;20.90;73.30;;;;;;5049354;28;20113;-82
2021/08/15 08:10:29;;;;;;;6.30;2.42;;;20.90;72.70;;;;;;5046540;28;20037;-82
2021/08/15 08:12:56;;;;;;;7.43;2.60;;;20.90;71.40;;;;;;5047324;28;20296;-79
2021/08/15 08:15:24;;;;;;;5.85;2.60;;;20.90;70.50;;;;;;5052057;28;20298;-81
2021/08/15 08:17:53;;;;;;;5.55;2.78;;;21.10;71.00;;;;;;5053991;28;20228;-82
2021/08/15 08:20:21;;;;;;;8.23;2.53;;;21.30;70.30;;;;;;5049453;28;20048;-81
2021/08/15 08:22:48;;;;;;;5.50;2.45;;;21.60;70.30;;;;;;5049046;28;20041;-82
2021/08/15 08:25:17;;;;;;;9.30;2.92;;;21.80;69.20;;;;;;5045085;28;20344;-82
2021/08/15 08:27:44;;;;;;;8.65;2.53;;;22.00;68.40;;;;;;5042734;28;20057;-81
2021/08/15 08:30:12;;;;;;;7.18;2.70;;;22.10;68.10;;;;;;5044767;28;20148;-80
2021/08/15 08:32:40;;;;;;;8.02;2.67;;;22.30;68.00;;;;;;5047331;28;20045;-83
2021/08/15 08:35:10;;;;;;;7.70;2.83;;;22.40;66.50;;;;;;5041365;28;20046;-84
2021/08/15 08:37:37;;;;;;;5.38;2.45;;;22.40;65.10;;;;;;5057061;28;20057;-82
2021/08/15 08:40:06;;;;;;;6.03;2.15;;;22.50;65.30;;;;;;5037598;28;20137;-82
2021/08/15 08:42:33;;;;;;;7.43;2.73;;;22.50;64.40;;;;;;5058701;28;20232;-82
2021/08/15 08:45:02;;;;;;;8.73;2.55;;;22.50;64.90;;;;;;5045145;28;20499;-80
2021/08/15 08:47:34;;;;;;;8.70;2.40;;;22.50;63.80;;;;;;5058333;28;20041;-80
2021/08/15 08:50:01;;;;;;;8.43;2.70;;;22.50;63.80;;;;;;5046593;28;20300;-82
2021/08/15 08:52:34;;;;;;;7.82;2.53;;;22.60;63.40;;;;;;5049023;28;20052;-83
2021/08/15 08:55:04;;;;;;;7.22;2.72;;;22.70;63.40;;;;;;5045519;28;20116;-83
2021/08/15 08:57:32;;;;;;;4.65;1.83;;;22.90;62.90;;;;;;5044284;28;20162;-82
2021/08/15 09:00:00;;;;;;;6.25;2.35;;;23.00;61.60;;;;;;5046854;28;20109;-81
2021/08/15 09:02:36;;;;;;;6.65;1.95;;;23.30;61.10;;;;;;5044754;28;20044;-83
2021/08/15 09:05:05;;;;;;;4.80;1.92;;;23.50;61.90;;;;;;5045429;28;20038;-81
2021/08/15 09:07:36;;;;;;;5.40;1.50;;;23.70;59.90;;;;;;5056597;28;20049;-80
2021/08/15 09:10:06;;;;;;;4.03;2.22;;;23.70;58.50;;;;;;5079507;28;20056;-82
2021/08/15 09:12:35;;;;;;;3.30;1.38;;;23.80;57.60;;;;;;5045991;28;20060;-82
2021/08/15 09:15:10;;;;;;;8.32;2.75;;;23.70;57.00;;;;;;5057125;28;20282;-82
2021/08/15 09:17:38;;;;;;;3.50;1.17;;;23.90;58.40;;;;;;5045669;28;20072;-82
2021/08/15 09:20:07;;;;;;;3.65;1.15;;;24.10;54.00;;;;;;5048198;28;20145;-80
2021/08/15 09:22:37;;;;;;;2.80;1.07;;;24.30;54.30;;;;;;5048223;28;20037;-81
2021/08/15 09:25:08;;;;;;;4.93;1.17;;;24.50;53.10;;;;;;5059218;28;20083;-80
2021/08/15 09:27:38;;;;;;;4.22;1.33;;;24.40;53.10;;;;;;5052694;28;20340;-82
2021/08/15 09:30:18;;;;;;;1.90;1.00;;;24.60;53.60;;;;;;5044389;28;20044;-81
2021/08/15 09:32:49;;;;;;;3.17;1.23;;;24.60;52.70;;;;;;5044961;28;20107;-81
2021/08/15 09:35:22;;;;;;;2.42;1.05;;;24.60;52.00;;;;;;5043481;28;20080;-81
2021/08/15 09:37:56;;;;;;;3.20;1.45;;;24.50;51.40;;;;;;5055842;28;20037;-82
2021/08/15 09:40:26;;;;;;;5.00;1.85;;;24.70;52.10;;;;;;5041858;28;20364;-81
2021/08/15 09:42:54;;;;;;;3.75;1.38;;;25.00;53.80;;;;;;5056748;28;20062;-80
2021/08/15 09:45:37;;;;;;;3.60;1.40;;;25.20;50.90;;;;;;5044033;28;20025;-82
2021/08/15 09:48:17;;;;;;;6.05;1.73;;;25.30;52.80;;;;;;5040059;28;20048;-82
2021/08/15 09:51:05;;;;;;;6.78;1.58;;;25.30;50.80;;;;;;5042737;28;20072;-83
2021/08/15 09:53:35;;;;;;;3.88;1.17;;;25.30;51.70;;;;;;5041777;28;20064;-82
2021/08/15 09:56:04;;;;;;;;;;;25.30;50.30;;;;;;5044082;28;20079;-81
2021/08/15 09:58:31;;;;;;;3.83;1.20;;;25.20;51.10;;;;;;5042584;28;19925;-82
2021/08/15 10:01:00;;;;;;;2.75;1.50;;;25.30;50.70;;;;;;5042788;28;20333;-81
2021/08/15 10:03:30;;;;;;;4.57;1.15;;;25.40;49.40;;;;;;5059131;28;20052;-82
2021/08/15 10:05:58;;;;;;;3.42;1.35;;;25.30;50.30;;;;;;5037629;28;20072;-81
2021/08/15 10:08:25;;;;;;;10.27;1.60;;;25.60;49.20;;;;;;5040760;28;20054;-81
2021/08/15 10:10:55;;;;;;;4.47;1.90;;;26.00;49.40;;;;;;5036791;28;20111;-81
2021/08/15 10:13:23;;;;;;;5.22;1.77;;;26.50;48.10;;;;;;5058050;28;20061;-81
2021/08/15 10:16:00;;;;;;;6.88;2.13;;;26.90;46.40;;;;;;5045813;28;20117;-81
2021/08/15 10:18:33;;;;;;;4.10;1.38;;;27.30;44.70;;;;;;5064314;28;20058;-81
2021/08/15 10:21:03;;;;;;;4.60;1.40;;;28.10;43.10;;;;;;5041754;28;20057;-79
2021/08/15 10:23:39;;;;;;;3.20;1.33;;;29.50;41.00;;;;;;5039003;28;20041;-80
2021/08/15 10:26:25;;;;;;;;;;;30.80;37.10;;;;;;5044273;28;20069;-81
2021/08/15 10:28:54;;;;;;;4.85;1.60;;;31.80;35.50;;;;;;5073099;28;19925;-80
2021/08/15 10:31:21;;;;;;;;;;;32.20;34.30;;;;;;5044322;28;20049;-82
2021/08/15 10:33:56;;;;;;;4.00;1.40;;;32.50;34.20;;;;;;5042584;28;19963;-81
2021/08/15 10:36:27;;;;;;;3.22;1.40;;;33.30;32.50;;;;;;5045535;28;20084;-83
2021/08/15 10:38:56;;;;;;;2.13;1.00;;;33.70;31.50;;;;;;5057421;28;20383;-82
2021/08/15 10:41:52;;;;;;;1.60;0.80;;;33.70;29.60;;;;;;5042416;28;20049;-81
2021/08/15 10:44:22;;;;;;;3.85;1.15;;;35.10;28.80;;;;;;5045140;28;20262;-82
2021/08/15 10:47:15;;;;;;;2.53;0.88;;;34.80;26.70;;;;;;5046096;28;20124;-82
2021/08/15 10:49:51;;;;;;;2.17;0.75;;;34.50;24.60;;;;;;5052317;28;20060;-82
2021/08/15 10:52:34;;;;;;;4.35;1.00;;;34.20;26.80;;;;;;5061327;28;20120;-81
2021/08/15 10:55:04;;;;;;;2.85;1.10;;;34.50;26.60;;;;;;5046216;28;20064;-82
2021/08/15 10:57:57;;;;;;;3.83;1.05;;;34.50;26.80;;;;;;5046002;28;20133;-82
2021/08/15 11:00:50;;;;;;;2.60;1.10;;;33.40;28.10;;;;;;5038774;28;20091;-79
2021/08/15 11:03:33;;;;;;;2.60;0.90;;;33.30;28.90;;;;;;5045066;28;20064;-81
2021/08/15 11:06:02;;;;;;;2.13;0.90;;;34.80;27.40;;;;;;5037833;28;20072;-82
2021/08/15 11:08:58;;;;;;;1.92;0.90;;;35.00;25.90;;;;;;5050964;28;20064;-81
2021/08/15 11:11:30;;;;;;;2.42;0.82;;;34.70;25.70;;;;;;5057964;28;20049;-81
2021/08/15 11:14:25;;;;;;;2.08;1.00;;;35.10;25.60;;;;;;5049380;28;20129;-81
2021/08/15 11:16:56;;;;;;;2.22;0.75;;;34.50;24.80;;;;;;5050938;28;20069;-82
2021/08/15 11:19:29;;;;;;;2.45;1.08;;;35.60;24.80;;;;;;5050637;28;20388;-81
2021/08/15 11:22:09;;;;;;;2.92;0.90;;;35.00;24.50;;;;;;5052642;28;20060;-80
2021/08/15 11:24:40;;;;;;;2.28;0.73;;;35.00;24.50;;;;;;5067273;28;20415;-82
2021/08/15 11:27:09;;;;;;;2.17;0.93;;;35.50;25.20;;;;;;5043978;28;20057;-82
2021/08/15 11:29:38;;;;;;;2.65;1.10;;;35.60;24.40;;;;;;5056407;28;20044;-82
2021/08/15 11:32:12;;;;;;;2.97;0.77;;;36.60;22.80;;;;;;5040803;28;20052;-80
2021/08/15 11:34:49;;;;;;;3.80;1.20;;;36.30;24.10;;;;;;5076505;28;20053;-81
2021/08/15 11:37:19;;;;;;;2.40;0.75;;;35.20;25.00;;;;;;5056601;28;20390;-81
2021/08/15 11:39:46;;;;;;;1.70;0.88;;;35.40;24.80;;;;;;5042014;28;20037;-81
2021/08/15 11:42:18;;;;;;;2.50;0.88;;;35.60;24.60;;;;;;5043498;28;20255;-82
2021/08/15 11:44:54;;;;;;;1.70;0.70;;;35.50;25.50;;;;;;5055828;28;20108;-81
2021/08/15 11:47:24;;;;;;;2.97;1.23;;;35.80;24.70;;;;;;5074717;28;20045;-80
2021/08/15 11:49:52;;;;;;;2.22;1.63;;;36.50;23.90;;;;;;5047546;28;20052;-81
2021/08/15 11:52:22;;;;;;;3.85;0.90;;;36.50;23.90;;;;;;5047100;28;20073;-80
2021/08/15 11:54:50;;;;;;;3.28;1.20;;;36.10;24.60;;;;;;5058949;28;20064;-80
2021/08/15 11:57:17;;;;;;;2.33;1.10;;;36.90;23.50;;;;;;5043995;28;20128;-80
2021/08/15 11:59:46;;;;;;;1.65;0.70;;;36.40;23.40;;;;;;5052964;28;20041;-82
2021/08/15 12:02:23;;;;;;;2.03;0.77;;;36.20;23.90;;;;;;5042057;28;20237;-80
2021/08/15 12:04:51;;;;;;;2.55;0.90;;;36.30;23.00;;;;;;5049870;28;20112;-81
2021/08/15 12:07:23;;;;;;;2.80;1.00;;;36.70;22.60;;;;;;5067131;28;20084;-79
2021/08/15 12:10:25;;;;;;;3.90;0.90;;;35.80;24.20;;;;;;5039466;28;20042;-80
2021/08/15 12:13:17;;;;;;;2.58;0.82;;;36.10;24.20;;;;;;5058933;28;20063;-82
2021/08/15 12:15:47;;;;;;;2.60;1.20;;;35.60;24.80;;;;;;5039830;28;20049;-80
2021/08/15 12:18:31;;;;;;;2.28;1.10;;;36.90;24.10;;;;;;5056146;28;20099;-80
2021/08/15 12:20:59;;;;;;;1.98;0.70;;;36.00;24.50;;;;;;5065427;28;20095;-80
2021/08/15 12:23:26;;;;;;;1.60;0.70;;;35.30;25.50;;;;;;5044015;28;20036;-82
2021/08/15 12:26:10;;;;;;;5.53;1.10;;;35.60;24.30;;;;;;5049754;28;20080;-81
2021/08/15 12:28:38;;;;;;;2.50;0.65;;;36.20;24.40;;;;;;5049806;28;20061;-80
2021/08/15 12:31:19;;;;;;;;;;;37.50;23.40;;;;;;5048812;28;20119;-81
2021/08/15 12:33:50;;;;;;;1.90;0.80;;;36.70;24.20;;;;;;5050997;28;19917;-81
2021/08/15 12:36:23;;;;;;;2.75;0.90;;;37.20;24.20;;;;;;5060676;28;20053;-82
2021/08/15 12:39:03;;;;;;;3.80;1.10;;;37.50;23.20;;;;;;5045907;28;20050;-81
2021/08/15 12:41:49;;;;;;;2.28;0.90;;;36.10;24.20;;;;;;5079099;28;20064;-80
2021/08/15 12:44:20;;;;;;;1.83;0.90;;;36.00;24.60;;;;;;5038300;28;20076;-81
2021/08/15 12:47:07;;;;;;;3.60;0.60;;;36.20;24.30;;;;;;5049198;28;20334;-81
2021/08/15 12:49:42;;;;;;;2.73;1.03;;;36.40;24.40;;;;;;5055464;28;20050;-80
2021/08/15 12:52:19;;;;;;;2.67;0.73;;;36.70;24.00;;;;;;5063485;28;20057;-81
2021/08/15 12:55:18;;;;;;;1.65;0.60;;;37.00;23.60;;;;;;5068852;28;20069;-81
2021/08/15 12:57:47;;;;;;;4.00;1.00;;;36.60;24.50;;;;;;5061670;28;20041;-82
2021/08/15 13:00:17;;;;;;;1.33;0.60;;;37.70;23.70;;;;;;5050526;28;20088;-81
2021/08/15 13:02:46;;;;;;;2.05;0.80;;;37.80;23.20;;;;;;5055226;28;20284;-80